Time,TemperatureF,DewpointF,PressureIn,WindDirection,WindDirectionDegrees,WindSpeedMPH,WindSpeedGustMPH,Humidity,HourlyPrecipIn,Conditions,Clouds,dailyrainin,SoftwareType,DateUTC
2013-03-28 00:00:00,32.7,22.9,30.36,SW,226,0.0,0.0,67,0.00,,,0.00,Wunderground v.1.15,2013-03-28 04:00:00,
2013-03-28 00:02:00,32.7,22.9,30.36,South,180,0.0,1.0,67,0.00,,,0.00,Wunderground v.1.15,2013-03-28 04:02:00,
2013-03-28 00:08:00,32.7,23.3,30.36,WSW,254,0.0,1.0,68,0.00,,,0.00,Wunderground v.1.15,2013-03-28 04:08:00,
2013-03-28 00:10:00,32.4,23.4,30.36,SW,221,1.0,3.0,69,0.00,,,0.00,Wunderground v.1.15,2013-03-28 04:10:00,
2013-03-28 00:14:00,32.5,24.8,30.36,SSW,195,1.0,3.0,73,0.00,,,0.00,Wunderground v.1.15,2013-03-28 04:14:00,
2013-03-28 00:20:00,32.6,24.6,30.36,SW,221,1.0,3.0,72,0.00,,,0.00,Wunderground v.1.15,2013-03-28 04:20:00,
2013-03-28 00:28:00,32.8,24.8,30.35,SW,214,1.0,3.0,72,0.00,,,0.00,Wunderground v.1.15,2013-03-28 04:28:00,
2013-03-28 00:34:00,32.7,25.3,30.35,SSW,204,1.0,2.0,74,0.00,,,0.00,Wunderground v.1.15,2013-03-28 04:34:00,
2013-03-28 00:40:00,32.3,25.3,30.35,SSW,204,1.0,1.0,75,0.00,,,0.00,Wunderground v.1.15,2013-03-28 04:40:00,
2013-03-28 00:46:00,32.3,25.3,30.35,SW,215,1.0,2.0,75,0.00,,,0.00,Wunderground v.1.15,2013-03-28 04:46:00,
2013-03-28 00:52:00,32.5,25.8,30.35,SSW,210,2.0,2.0,76,0.00,,,0.00,Wunderground v.1.15,2013-03-28 04:52:00,
2013-03-28 00:58:00,32.0,25.3,30.35,SSW,200,1.0,2.0,76,0.00,,,0.00,Wunderground v.1.15,2013-03-28 04:58:00,
2013-03-28 01:04:00,32.0,25.3,30.35,SSW,194,0.0,1.0,76,0.00,,,0.00,Wunderground v.1.15,2013-03-28 05:04:00,
2013-03-28 01:10:00,31.4,25.0,30.35,SSW,194,0.0,1.0,77,0.00,,,0.00,Wunderground v.1.15,2013-03-28 05:10:00,
2013-03-28 01:18:00,30.8,24.7,30.35,SSW,212,1.0,2.0,78,0.00,,,0.00,Wunderground v.1.15,2013-03-28 05:18:00,
2013-03-28 01:24:00,30.6,25.2,30.35,SW,236,1.0,1.0,80,0.00,,,0.00,Wunderground v.1.15,2013-03-28 05:24:00,
2013-03-28 01:30:00,30.7,25.0,30.35,SW,236,1.0,1.0,79,0.00,,,0.00,Wunderground v.1.15,2013-03-28 05:30:00,
2013-03-28 01:36:00,30.8,25.1,30.35,SW,236,0.0,1.0,79,0.00,,,0.00,Wunderground v.1.15,2013-03-28 05:36:00,
2013-03-28 01:42:00,30.8,24.7,30.35,SW,236,0.0,1.0,78,0.00,,,0.00,Wunderground v.1.15,2013-03-28 05:42:00,
2013-03-28 01:48:00,30.7,24.7,30.35,WSW,237,0.0,1.0,78,0.00,,,0.00,Wunderground v.1.15,2013-03-28 05:48:00,
2013-03-28 01:54:00,30.3,24.3,30.35,SW,236,0.0,1.0,78,0.00,,,0.00,Wunderground v.1.15,2013-03-28 05:54:00,
2013-03-28 02:00:00,30.0,24.3,30.35,SW,236,0.0,2.0,79,0.00,,,0.00,Wunderground v.1.15,2013-03-28 06:00:00,
2013-03-28 02:06:00,29.7,24.9,30.35,SW,236,1.0,2.0,82,0.00,,,0.00,Wunderground v.1.15,2013-03-28 06:06:00,
2013-03-28 02:12:00,29.4,24.9,30.35,SW,236,1.0,1.0,83,0.00,,,0.00,Wunderground v.1.15,2013-03-28 06:12:00,
2013-03-28 02:20:00,29.6,25.1,30.35,SW,236,1.0,1.0,83,0.00,,,0.00,Wunderground v.1.15,2013-03-28 06:20:00,
2013-03-28 02:28:00,29.7,24.3,30.35,SW,233,0.0,1.0,80,0.00,,,0.00,Wunderground v.1.15,2013-03-28 06:28:00,
2013-03-28 02:34:00,29.4,23.7,30.35,SW,233,0.0,1.0,79,0.00,,,0.00,Wunderground v.1.15,2013-03-28 06:34:00,
2013-03-28 02:40:00,28.9,23.2,30.35,SW,234,0.0,1.0,79,0.00,,,0.00,Wunderground v.1.15,2013-03-28 06:40:00,
2013-03-28 02:46:00,28.8,23.7,30.35,SW,233,0.0,1.0,81,0.00,,,0.00,Wunderground v.1.15,2013-03-28 06:46:00,
2013-03-28 02:52:00,29.1,23.7,30.35,SW,233,0.0,1.0,80,0.00,,,0.00,Wunderground v.1.15,2013-03-28 06:52:00,
2013-03-28 02:58:00,29.5,23.8,30.35,SW,233,0.0,1.0,79,0.00,,,0.00,Wunderground v.1.15,2013-03-28 06:58:00,
2013-03-28 03:04:00,29.6,23.6,30.35,SW,233,0.0,1.0,78,0.00,,,0.00,Wunderground v.1.15,2013-03-28 07:04:00,
2013-03-28 03:10:00,29.2,23.2,30.35,SW,233,0.0,1.0,78,0.00,,,0.00,Wunderground v.1.15,2013-03-28 07:10:00,
2013-03-28 03:18:00,28.8,23.4,30.35,SW,233,0.0,1.0,80,0.00,,,0.00,Wunderground v.1.15,2013-03-28 07:18:00,
2013-03-28 03:24:00,29.0,23.9,30.35,SW,221,1.0,2.0,81,0.00,,,0.00,Wunderground v.1.15,2013-03-28 07:24:00,
2013-03-28 03:30:00,28.8,24.3,30.34,SW,222,1.0,1.0,83,0.00,,,0.00,Wunderground v.1.15,2013-03-28 07:30:00,
2013-03-28 03:38:00,28.8,24.3,30.35,SW,222,1.0,1.0,83,0.00,,,0.00,Wunderground v.1.15,2013-03-28 07:38:00,
2013-03-28 03:44:00,29.0,23.9,30.35,SW,220,0.0,1.0,81,0.00,,,0.00,Wunderground v.1.15,2013-03-28 07:44:00,
2013-03-28 03:50:00,29.3,24.2,30.34,SW,221,0.0,1.0,81,0.00,,,0.00,Wunderground v.1.15,2013-03-28 07:50:00,
2013-03-28 03:56:00,28.6,23.2,30.34,SW,222,0.0,1.0,80,0.00,,,0.00,Wunderground v.1.15,2013-03-28 07:56:00,
2013-03-28 04:02:00,27.9,22.8,30.35,SW,221,0.0,1.0,81,0.00,,,0.00,Wunderground v.1.15,2013-03-28 08:02:00,
2013-03-28 04:08:00,27.7,23.2,30.34,SW,221,0.0,1.0,83,0.00,,,0.00,Wunderground v.1.15,2013-03-28 08:08:00,
2013-03-28 04:14:00,28.1,24.2,30.35,SW,221,0.0,1.0,85,0.00,,,0.00,Wunderground v.1.15,2013-03-28 08:14:00,
2013-03-28 04:20:00,28.5,24.8,30.34,SW,221,0.0,1.0,86,0.00,,,0.00,Wunderground v.1.15,2013-03-28 08:20:00,
2013-03-28 04:26:00,28.8,24.9,30.35,SW,221,0.0,1.0,85,0.00,,,0.00,Wunderground v.1.15,2013-03-28 08:26:00,
2013-03-28 04:32:00,28.9,25.2,30.35,SW,220,0.0,1.0,86,0.00,,,0.00,Wunderground v.1.15,2013-03-28 08:32:00,
2013-03-28 04:38:00,28.9,25.5,30.35,SW,221,0.0,1.0,87,0.00,,,0.00,Wunderground v.1.15,2013-03-28 08:38:00,
2013-03-28 04:44:00,28.8,25.4,30.35,SW,221,0.0,1.0,87,0.00,,,0.00,Wunderground v.1.15,2013-03-28 08:44:00,
2013-03-28 04:50:00,28.8,25.4,30.35,SW,221,0.0,1.0,87,0.00,,,0.00,Wunderground v.1.15,2013-03-28 08:50:00,
2013-03-28 04:58:00,28.9,25.8,30.35,SW,221,1.0,1.0,88,0.00,,,0.00,Wunderground v.1.15,2013-03-28 08:58:00,
2013-03-28 05:04:00,28.8,25.7,30.35,SW,221,0.0,1.0,88,0.00,,,0.00,Wunderground v.1.15,2013-03-28 09:04:00,
2013-03-28 05:10:00,28.9,26.1,30.35,SW,221,0.0,1.0,89,0.00,,,0.00,Wunderground v.1.15,2013-03-28 09:10:00,
2013-03-28 05:16:00,28.9,26.1,30.35,SW,221,0.0,1.0,89,0.00,,,0.00,Wunderground v.1.15,2013-03-28 09:16:00,
2013-03-28 05:22:00,28.7,25.6,30.35,SW,221,0.0,1.0,88,0.00,,,0.00,Wunderground v.1.15,2013-03-28 09:22:00,
2013-03-28 05:28:00,28.5,25.7,30.35,SW,220,0.0,1.0,89,0.00,,,0.00,Wunderground v.1.15,2013-03-28 09:28:00,
2013-03-28 05:34:00,28.3,25.5,30.35,SW,222,0.0,1.0,89,0.00,,,0.00,Wunderground v.1.15,2013-03-28 09:34:00,
2013-03-28 05:40:00,28.2,25.6,30.35,SW,221,0.0,1.0,90,0.00,,,0.00,Wunderground v.1.15,2013-03-28 09:40:00,
2013-03-28 05:46:00,28.2,25.6,30.35,SW,221,0.0,1.0,90,0.00,,,0.00,Wunderground v.1.15,2013-03-28 09:46:00,
2013-03-28 05:52:00,28.3,25.7,30.35,SW,221,0.0,1.0,90,0.00,,,0.00,Wunderground v.1.15,2013-03-28 09:52:00,
2013-03-28 05:58:00,28.4,26.1,30.35,SW,221,0.0,1.0,91,0.00,,,0.00,Wunderground v.1.15,2013-03-28 09:58:00,
2013-03-28 06:04:00,28.5,25.9,30.36,SW,221,0.0,1.0,90,0.00,,,0.00,Wunderground v.1.15,2013-03-28 10:04:00,
2013-03-28 06:10:00,28.3,25.7,30.36,SW,220,0.0,1.0,90,0.00,,,0.00,Wunderground v.1.15,2013-03-28 10:10:00,
2013-03-28 06:18:00,28.3,25.2,30.36,SW,218,0.0,1.0,88,0.00,,,0.00,Wunderground v.1.15,2013-03-28 10:18:00,
2013-03-28 06:24:00,28.4,24.7,30.36,SSW,200,0.0,1.0,86,0.00,,,0.00,Wunderground v.1.15,2013-03-28 10:24:00,
2013-03-28 06:30:00,28.4,24.7,30.36,SSW,201,0.0,1.0,86,0.00,,,0.00,Wunderground v.1.15,2013-03-28 10:30:00,
2013-03-28 06:36:00,28.5,24.8,30.36,SSW,201,0.0,1.0,86,0.00,,,0.00,Wunderground v.1.15,2013-03-28 10:36:00,
2013-03-28 06:42:00,28.4,24.7,30.36,SSW,201,0.0,1.0,86,0.00,,,0.00,Wunderground v.1.15,2013-03-28 10:42:00,
2013-03-28 06:48:00,28.4,24.7,30.37,SSW,200,0.0,1.0,86,0.00,,,0.00,Wunderground v.1.15,2013-03-28 10:48:00,
2013-03-28 06:54:00,28.3,24.9,30.37,South,181,0.0,1.0,87,0.00,,,0.00,Wunderground v.1.15,2013-03-28 10:54:00,
2013-03-28 07:00:00,28.1,24.7,30.37,South,181,0.0,1.0,87,0.00,,,0.00,Wunderground v.1.15,2013-03-28 11:00:00,
2013-03-28 07:06:00,27.8,24.4,30.37,South,181,0.0,1.0,87,0.00,,,0.00,Wunderground v.1.15,2013-03-28 11:06:00,
2013-03-28 07:12:00,27.7,24.6,30.37,SW,218,1.0,1.0,88,0.00,,,0.00,Wunderground v.1.15,2013-03-28 11:12:00,
2013-03-28 07:18:00,27.9,25.1,30.37,SSW,211,1.0,1.0,89,0.00,,,0.00,Wunderground v.1.15,2013-03-28 11:18:00,
2013-03-28 07:24:00,28.1,25.3,30.38,SSW,198,0.0,1.0,89,0.00,,,0.00,Wunderground v.1.15,2013-03-28 11:24:00,
2013-03-28 07:30:00,28.3,25.7,30.38,South,181,0.0,1.0,90,0.00,,,0.00,Wunderground v.1.15,2013-03-28 11:30:00,
2013-03-28 07:36:00,28.4,25.3,30.38,South,188,0.0,1.0,88,0.00,,,0.00,Wunderground v.1.15,2013-03-28 11:36:00,
2013-03-28 07:42:00,28.6,25.5,30.39,South,190,1.0,1.0,88,0.00,,,0.00,Wunderground v.1.15,2013-03-28 11:42:00,
2013-03-28 07:48:00,29.1,26.0,30.39,South,179,1.0,1.0,88,0.00,,,0.00,Wunderground v.1.15,2013-03-28 11:48:00,
2013-03-28 07:54:00,29.5,25.8,30.39,South,172,1.0,1.0,86,0.00,,,0.00,Wunderground v.1.15,2013-03-28 11:54:00,
2013-03-28 08:00:00,29.6,25.6,30.39,South,172,0.0,1.0,85,0.00,,,0.00,Wunderground v.1.15,2013-03-28 12:00:00,
2013-03-28 08:08:00,30.2,25.7,30.39,South,172,0.0,1.0,83,0.00,,,0.00,Wunderground v.1.15,2013-03-28 12:08:00,
2013-03-28 08:14:00,30.6,26.3,30.39,South,174,0.0,1.0,84,0.00,,,0.00,Wunderground v.1.15,2013-03-28 12:14:00,
2013-03-28 08:20:00,30.8,26.0,30.39,SW,231,0.0,1.0,82,0.00,,,0.00,Wunderground v.1.15,2013-03-28 12:20:00,
2013-03-28 08:26:00,30.8,26.2,30.40,SW,231,0.0,1.0,83,0.00,,,0.00,Wunderground v.1.15,2013-03-28 12:26:00,
2013-03-28 08:32:00,31.2,26.6,30.40,SW,231,0.0,1.0,83,0.00,,,0.00,Wunderground v.1.15,2013-03-28 12:32:00,
2013-03-28 08:38:00,32.6,28.6,30.39,SW,231,0.0,1.0,85,0.00,,,0.00,Wunderground v.1.15,2013-03-28 12:38:00,
2013-03-28 08:44:00,33.4,28.2,30.40,SW,231,0.0,1.0,81,0.00,,,0.00,Wunderground v.1.15,2013-03-28 12:44:00,
2013-03-28 08:50:00,33.9,28.4,30.40,SW,231,0.0,1.0,80,0.00,,,0.00,Wunderground v.1.15,2013-03-28 12:50:00,
2013-03-28 08:58:00,34.5,29.6,30.40,North,352,0.0,1.0,82,0.00,,,0.00,Wunderground v.1.15,2013-03-28 12:58:00,
2013-03-28 09:04:00,35.8,29.9,30.40,NE,37,0.0,1.0,79,0.00,,,0.00,Wunderground v.1.15,2013-03-28 13:04:00,
2013-03-28 09:10:00,35.7,29.8,30.40,NNE,24,0.0,1.0,79,0.00,,,0.00,Wunderground v.1.15,2013-03-28 13:10:00,
2013-03-28 09:18:00,35.7,30.4,30.40,NE,35,1.0,2.0,81,0.00,,,0.00,Wunderground v.1.15,2013-03-28 13:18:00,
2013-03-28 09:24:00,36.3,30.4,30.40,NE,39,0.0,1.0,79,0.00,,,0.00,Wunderground v.1.15,2013-03-28 13:24:00,
2013-03-28 09:30:00,37.0,31.4,30.40,NE,39,0.0,1.0,80,0.00,,,0.00,Wunderground v.1.15,2013-03-28 13:30:00,
2013-03-28 09:36:00,37.6,31.0,30.40,NE,41,1.0,1.0,77,0.00,,,0.00,Wunderground v.1.15,2013-03-28 13:36:00,
2013-03-28 09:42:00,37.5,30.9,30.40,NNE,16,1.0,2.0,77,0.00,,,0.00,Wunderground v.1.15,2013-03-28 13:42:00,
2013-03-28 09:48:00,37.3,30.7,30.40,NNE,29,2.0,3.0,77,0.00,,,0.00,Wunderground v.1.15,2013-03-28 13:48:00,
2013-03-28 09:54:00,37.6,32.0,30.40,NE,40,2.0,3.0,80,0.00,,,0.00,Wunderground v.1.15,2013-03-28 13:54:00,
2013-03-28 10:00:00,38.0,31.7,30.40,NE,51,3.0,3.0,78,0.00,,,0.00,Wunderground v.1.15,2013-03-28 14:00:00,
2013-03-28 10:08:00,39.3,32.0,30.41,East,87,2.0,4.0,75,0.00,,,0.00,Wunderground v.1.15,2013-03-28 14:08:00,
2013-03-28 10:14:00,40.4,32.4,30.41,SE,129,3.0,3.0,73,0.00,,,0.00,Wunderground v.1.15,2013-03-28 14:14:00,
2013-03-28 10:20:00,41.1,31.3,30.41,ENE,77,3.0,5.0,68,0.00,,,0.00,Wunderground v.1.15,2013-03-28 14:20:00,
2013-03-28 10:26:00,41.6,30.3,30.41,ESE,109,5.0,7.0,64,0.00,,,0.00,Wunderground v.1.15,2013-03-28 14:26:00,
2013-03-28 10:32:00,42.1,28.8,30.41,SE,128,4.0,5.0,59,0.00,,,0.00,Wunderground v.1.15,2013-03-28 14:32:00,
2013-03-28 10:38:00,42.1,27.5,30.40,SSE,159,4.0,7.0,56,0.00,,,0.00,Wunderground v.1.15,2013-03-28 14:38:00,
2013-03-28 10:44:00,41.6,26.2,30.41,South,179,5.0,6.0,54,0.00,,,0.00,Wunderground v.1.15,2013-03-28 14:44:00,
2013-03-28 10:50:00,42.1,27.1,30.41,NW,318,4.0,4.0,55,0.00,,,0.00,Wunderground v.1.15,2013-03-28 14:50:00,
2013-03-28 10:58:00,42.2,25.8,30.41,SSW,201,3.0,4.0,52,0.00,,,0.00,Wunderground v.1.15,2013-03-28 14:58:00,
2013-03-28 11:04:00,42.1,26.6,30.41,South,176,4.0,5.0,54,0.00,,,0.00,Wunderground v.1.15,2013-03-28 15:04:00,
2013-03-28 11:10:00,42.3,25.9,30.41,SW,231,5.0,7.0,52,0.00,,,0.00,Wunderground v.1.15,2013-03-28 15:10:00,
2013-03-28 11:18:00,42.6,26.2,30.41,South,188,5.0,7.0,52,0.00,,,0.00,Wunderground v.1.15,2013-03-28 15:18:00,
2013-03-28 11:24:00,42.7,25.8,30.41,SSW,197,3.0,4.0,51,0.00,,,0.00,Wunderground v.1.15,2013-03-28 15:24:00,
2013-03-28 11:30:00,43.1,23.7,30.41,SW,231,4.0,4.0,46,0.00,,,0.00,Wunderground v.1.15,2013-03-28 15:30:00,
2013-03-28 11:36:00,43.2,24.3,30.41,WNW,291,5.0,8.0,47,0.00,,,0.00,Wunderground v.1.15,2013-03-28 15:36:00,
2013-03-28 11:42:00,43.1,24.7,30.40,NW,314,4.0,5.0,48,0.00,,,0.00,Wunderground v.1.15,2013-03-28 15:42:00,
2013-03-28 11:48:00,43.7,26.7,30.40,SSW,211,3.0,9.0,51,0.00,,,0.00,Wunderground v.1.15,2013-03-28 15:48:00,
2013-03-28 11:54:00,43.9,26.4,30.40,NNW,344,5.0,6.0,50,0.00,,,0.00,Wunderground v.1.15,2013-03-28 15:54:00,
2013-03-28 12:00:00,44.4,25.4,30.40,NW,305,4.0,4.0,47,0.00,,,0.00,Wunderground v.1.15,2013-03-28 16:00:00,
2013-03-28 12:06:00,44.2,25.2,30.40,South,185,3.0,6.0,47,0.00,,,0.00,Wunderground v.1.15,2013-03-28 16:06:00,
2013-03-28 12:12:00,44.9,25.9,30.40,SSW,210,3.0,9.0,47,0.00,,,0.00,Wunderground v.1.15,2013-03-28 16:12:00,
2013-03-28 12:18:00,45.0,25.4,30.40,North,4,3.0,9.0,46,0.00,,,0.00,Wunderground v.1.15,2013-03-28 16:18:00,
2013-03-28 12:24:00,45.4,25.8,30.39,ENE,60,2.0,4.0,46,0.00,,,0.00,Wunderground v.1.15,2013-03-28 16:24:00,
2013-03-28 12:30:00,44.3,26.3,30.39,NE,41,4.0,8.0,49,0.00,,,0.00,Wunderground v.1.15,2013-03-28 16:30:00,
2013-03-28 12:38:00,44.2,26.7,30.39,ENE,63,7.0,8.0,50,0.00,,,0.00,Wunderground v.1.15,2013-03-28 16:38:00,
2013-03-28 12:44:00,43.9,26.4,30.39,NE,52,6.0,9.0,50,0.00,,,0.00,Wunderground v.1.15,2013-03-28 16:44:00,
2013-03-28 12:50:00,44.0,26.0,30.39,ESE,108,7.0,7.0,49,0.00,,,0.00,Wunderground v.1.15,2013-03-28 16:50:00,
2013-03-28 12:56:00,44.0,27.0,30.38,ENE,71,8.0,8.0,51,0.00,,,0.00,Wunderground v.1.15,2013-03-28 16:56:00,
2013-03-28 13:02:00,44.8,28.2,30.39,ENE,58,8.0,8.0,52,0.00,,,0.00,Wunderground v.1.15,2013-03-28 17:02:00,
2013-03-28 13:08:00,44.9,29.2,30.38,NE,53,7.0,10.0,54,0.00,,,0.00,Wunderground v.1.15,2013-03-28 17:08:00,
2013-03-28 13:14:00,45.8,28.7,30.38,SSE,152,5.0,7.0,51,0.00,,,0.00,Wunderground v.1.15,2013-03-28 17:14:00,
2013-03-28 13:20:00,46.8,27.1,30.39,East,96,3.0,6.0,46,0.00,,,0.00,Wunderground v.1.15,2013-03-28 17:20:00,
2013-03-28 13:26:00,46.7,28.0,30.38,SSE,147,5.0,9.0,48,0.00,,,0.00,Wunderground v.1.15,2013-03-28 17:26:00,
2013-03-28 13:32:00,46.7,27.0,30.38,SSE,157,6.0,7.0,46,0.00,,,0.00,Wunderground v.1.15,2013-03-28 17:32:00,
2013-03-28 13:38:00,46.9,26.1,30.38,SSW,208,4.0,7.0,44,0.00,,,0.00,Wunderground v.1.15,2013-03-28 17:38:00,
2013-03-28 13:44:00,47.9,25.9,30.38,WNW,295,2.0,4.0,42,0.00,,,0.00,Wunderground v.1.15,2013-03-28 17:44:00,
2013-03-28 13:50:00,48.4,25.8,30.38,SW,221,3.0,3.0,41,0.00,,,0.00,Wunderground v.1.15,2013-03-28 17:50:00,
2013-03-28 13:56:00,48.4,24.6,30.37,East,99,4.0,8.0,39,0.00,,,0.00,Wunderground v.1.15,2013-03-28 17:56:00,
2013-03-28 14:02:00,48.2,26.2,30.37,SSW,195,5.0,5.0,42,0.00,,,0.00,Wunderground v.1.15,2013-03-28 18:02:00,
2013-03-28 14:08:00,48.3,23.8,30.37,WSW,240,5.0,6.0,38,0.00,,,0.00,Wunderground v.1.15,2013-03-28 18:08:00,
2013-03-28 14:14:00,48.8,25.5,30.37,SSW,213,3.0,12.0,40,0.00,,,0.00,Wunderground v.1.15,2013-03-28 18:14:00,
2013-03-28 14:20:00,48.3,24.5,30.36,SSE,159,4.0,4.0,39,0.00,,,0.00,Wunderground v.1.15,2013-03-28 18:20:00,
2013-03-28 14:28:00,48.8,24.3,30.36,ESE,112,6.0,10.0,38,0.00,,,0.00,Wunderground v.1.15,2013-03-28 18:28:00,
2013-03-28 14:34:00,49.2,24.6,30.35,WNW,290,6.0,8.0,38,0.00,,,0.00,Wunderground v.1.15,2013-03-28 18:34:00,
2013-03-28 14:40:00,49.5,25.5,30.35,WSW,238,5.0,5.0,39,0.00,,,0.00,Wunderground v.1.15,2013-03-28 18:40:00,
2013-03-28 14:46:00,49.7,24.5,30.35,SSW,201,6.0,9.0,37,0.00,,,0.00,Wunderground v.1.15,2013-03-28 18:46:00,
2013-03-28 14:52:00,49.6,24.4,30.35,WSW,245,6.0,7.0,37,0.00,,,0.00,Wunderground v.1.15,2013-03-28 18:52:00,
2013-03-28 14:58:00,49.9,22.6,30.35,West,259,4.0,11.0,34,0.00,,,0.00,Wunderground v.1.15,2013-03-28 18:58:00,
2013-03-28 15:04:00,50.1,24.8,30.34,SW,215,6.0,13.0,37,0.00,,,0.00,Wunderground v.1.15,2013-03-28 19:04:00,
2013-03-28 15:10:00,50.1,23.5,30.34,SW,222,7.0,13.0,35,0.00,,,0.00,Wunderground v.1.15,2013-03-28 19:10:00,
2013-03-28 15:16:00,50.3,25.0,30.34,SSW,201,9.0,13.0,37,0.00,,,0.00,Wunderground v.1.15,2013-03-28 19:16:00,
2013-03-28 15:22:00,50.5,23.8,30.34,West,277,7.0,8.0,35,0.00,,,0.00,Wunderground v.1.15,2013-03-28 19:22:00,
2013-03-28 15:28:00,50.9,23.5,30.34,WSW,257,6.0,10.0,34,0.00,,,0.00,Wunderground v.1.15,2013-03-28 19:28:00,
2013-03-28 15:34:00,50.6,22.5,30.33,WSW,254,7.0,11.0,33,0.00,,,0.00,Wunderground v.1.15,2013-03-28 19:34:00,
2013-03-28 15:40:00,50.7,23.3,30.33,SSW,201,7.0,7.0,34,0.00,,,0.00,Wunderground v.1.15,2013-03-28 19:40:00,
2013-03-28 15:50:00,50.8,22.0,30.33,SSW,211,7.0,7.0,32,0.00,,,0.00,Wunderground v.1.15,2013-03-28 19:50:00,
2013-03-28 15:58:00,51.5,23.3,30.32,SSW,198,4.0,7.0,33,0.00,,,0.00,Wunderground v.1.15,2013-03-28 19:58:00,
2013-03-28 16:04:00,51.8,23.6,30.32,West,262,2.0,3.0,33,0.00,,,0.00,Wunderground v.1.15,2013-03-28 20:04:00,
2013-03-28 16:10:00,51.9,25.1,30.32,NNW,344,4.0,4.0,35,0.00,,,0.00,Wunderground v.1.15,2013-03-28 20:10:00,
2013-03-28 16:16:00,52.6,23.5,30.32,SW,217,5.0,9.0,32,0.00,,,0.00,Wunderground v.1.15,2013-03-28 20:16:00,
2013-03-28 16:22:00,52.1,22.3,30.32,WSW,249,6.0,10.0,31,0.00,,,0.00,Wunderground v.1.15,2013-03-28 20:22:00,
2013-03-28 16:28:00,52.3,23.3,30.32,SW,214,6.0,10.0,32,0.00,,,0.00,Wunderground v.1.15,2013-03-28 20:28:00,
2013-03-28 16:34:00,52.3,22.5,30.32,SW,221,3.0,6.0,31,0.00,,,0.00,Wunderground v.1.15,2013-03-28 20:34:00,
2013-03-28 16:40:00,52.2,21.7,30.31,WSW,242,3.0,4.0,30,0.00,,,0.00,Wunderground v.1.15,2013-03-28 20:40:00,
2013-03-28 16:46:00,52.6,22.8,30.31,South,190,3.0,7.0,31,0.00,,,0.00,Wunderground v.1.15,2013-03-28 20:46:00,
2013-03-28 16:52:00,52.8,23.7,30.31,SW,217,6.0,9.0,32,0.00,,,0.00,Wunderground v.1.15,2013-03-28 20:52:00,
2013-03-28 16:58:00,52.6,21.2,30.31,SW,226,7.0,9.0,29,0.00,,,0.00,Wunderground v.1.15,2013-03-28 20:58:00,
2013-03-28 17:04:00,52.5,24.2,30.31,SSW,208,6.0,8.0,33,0.00,,,0.00,Wunderground v.1.15,2013-03-28 21:04:00,
2013-03-28 17:10:00,52.8,21.4,30.31,SW,223,6.0,6.0,29,0.00,,,0.00,Wunderground v.1.15,2013-03-28 21:10:00,
2013-03-28 17:16:00,52.9,22.3,30.30,WNW,282,6.0,6.0,30,0.00,,,0.00,Wunderground v.1.15,2013-03-28 21:16:00,
2013-03-28 17:22:00,53.6,22.9,30.31,West,280,4.0,4.0,30,0.00,,,0.00,Wunderground v.1.15,2013-03-28 21:22:00,
2013-03-28 17:28:00,53.6,21.2,30.30,WSW,257,3.0,5.0,28,0.00,,,0.00,Wunderground v.1.15,2013-03-28 21:28:00,
2013-03-28 17:34:00,53.3,22.6,30.30,SW,222,4.0,7.0,30,0.00,,,0.00,Wunderground v.1.15,2013-03-28 21:34:00,
2013-03-28 17:40:00,53.3,21.0,30.30,WSW,257,5.0,7.0,28,0.00,,,0.00,Wunderground v.1.15,2013-03-28 21:40:00,
2013-03-28 17:46:00,53.5,22.0,30.30,WSW,250,6.0,11.0,29,0.00,,,0.00,Wunderground v.1.15,2013-03-28 21:46:00,
2013-03-28 17:52:00,53.4,21.1,30.30,West,263,7.0,10.0,28,0.00,,,0.00,Wunderground v.1.15,2013-03-28 21:52:00,
2013-03-28 17:58:00,53.5,22.0,30.30,South,191,6.0,10.0,29,0.00,,,0.00,Wunderground v.1.15,2013-03-28 21:58:00,
2013-03-28 18:04:00,53.5,21.2,30.30,SW,229,5.0,7.0,28,0.00,,,0.00,Wunderground v.1.15,2013-03-28 22:04:00,
2013-03-28 18:10:00,53.5,22.8,30.30,SW,228,6.0,6.0,30,0.00,,,0.00,Wunderground v.1.15,2013-03-28 22:10:00,
2013-03-28 18:18:00,53.5,21.2,30.30,SW,235,5.0,11.0,28,0.00,,,0.00,Wunderground v.1.15,2013-03-28 22:18:00,
2013-03-28 18:24:00,53.2,20.9,30.30,SW,224,7.0,7.0,28,0.00,,,0.00,Wunderground v.1.15,2013-03-28 22:24:00,
2013-03-28 18:30:00,53.1,20.8,30.30,SW,225,6.0,6.0,28,0.00,,,0.00,Wunderground v.1.15,2013-03-28 22:30:00,
2013-03-28 18:36:00,53.0,22.4,30.30,SSW,200,6.0,6.0,30,0.00,,,0.00,Wunderground v.1.15,2013-03-28 22:36:00,
2013-03-28 18:42:00,53.4,22.7,30.30,SSW,210,3.0,4.0,30,0.00,,,0.00,Wunderground v.1.15,2013-03-28 22:42:00,
2013-03-28 18:48:00,53.3,21.8,30.30,West,269,4.0,7.0,29,0.00,,,0.00,Wunderground v.1.15,2013-03-28 22:48:00,
2013-03-28 18:54:00,53.2,21.7,30.30,NW,314,5.0,5.0,29,0.00,,,0.00,Wunderground v.1.15,2013-03-28 22:54:00,
2013-03-28 19:00:00,53.3,23.4,30.30,SSW,207,3.0,3.0,31,0.00,,,0.00,Wunderground v.1.15,2013-03-28 23:00:00,
2013-03-28 19:06:00,53.4,21.9,30.30,SW,231,3.0,4.0,29,0.00,,,0.00,Wunderground v.1.15,2013-03-28 23:06:00,
2013-03-28 19:12:00,53.4,21.9,30.30,SSW,211,2.0,3.0,29,0.00,,,0.00,Wunderground v.1.15,2013-03-28 23:12:00,
2013-03-28 19:18:00,53.0,20.7,30.31,SW,217,3.0,7.0,28,0.00,,,0.00,Wunderground v.1.15,2013-03-28 23:18:00,
2013-03-28 19:24:00,52.4,20.2,30.31,SW,225,5.0,6.0,28,0.00,,,0.00,Wunderground v.1.15,2013-03-28 23:24:00,
2013-03-28 19:30:00,52.1,20.8,30.31,SW,221,4.0,4.0,29,0.00,,,0.00,Wunderground v.1.15,2013-03-28 23:30:00,
2013-03-28 19:38:00,51.7,21.2,30.31,WSW,245,2.0,4.0,30,0.00,,,0.00,Wunderground v.1.15,2013-03-28 23:38:00,
2013-03-28 19:44:00,50.8,22.0,30.31,West,259,1.0,2.0,32,0.00,,,0.00,Wunderground v.1.15,2013-03-28 23:44:00,
2013-03-28 19:50:00,50.1,22.1,30.31,West,274,1.0,1.0,33,0.00,,,0.00,Wunderground v.1.15,2013-03-28 23:50:00,
2013-03-28 19:58:00,49.0,23.8,30.31,West,278,1.0,1.0,37,0.00,,,0.00,Wunderground v.1.15,2013-03-28 23:58:00,
2013-03-28 20:04:00,48.5,24.0,30.32,WNW,297,1.0,2.0,38,0.00,,,0.00,Wunderground v.1.15,2013-03-29 00:04:00,
2013-03-28 20:10:00,48.1,24.3,30.32,WSW,249,2.0,4.0,39,0.00,,,0.00,Wunderground v.1.15,2013-03-29 00:10:00,
2013-03-28 20:16:00,47.6,24.4,30.32,WNW,293,2.0,4.0,40,0.00,,,0.00,Wunderground v.1.15,2013-03-29 00:16:00,
2013-03-28 20:22:00,47.0,24.5,30.32,WSW,243,1.0,2.0,41,0.00,,,0.00,Wunderground v.1.15,2013-03-29 00:22:00,
2013-03-28 20:28:00,46.5,24.6,30.33,WSW,250,1.0,2.0,42,0.00,,,0.00,Wunderground v.1.15,2013-03-29 00:28:00,
2013-03-28 20:34:00,45.8,24.5,30.33,WSW,257,1.0,3.0,43,0.00,,,0.00,Wunderground v.1.15,2013-03-29 00:34:00,
2013-03-28 20:40:00,45.5,24.8,30.33,WSW,252,2.0,2.0,44,0.00,,,0.00,Wunderground v.1.15,2013-03-29 00:40:00,
2013-03-28 20:46:00,45.0,24.9,30.33,West,271,1.0,2.0,45,0.00,,,0.00,Wunderground v.1.15,2013-03-29 00:46:00,
2013-03-28 20:52:00,44.8,25.8,30.33,West,277,1.0,1.0,47,0.00,,,0.00,Wunderground v.1.15,2013-03-29 00:52:00,
2013-03-28 20:58:00,44.3,25.8,30.33,West,266,0.0,1.0,48,0.00,,,0.00,Wunderground v.1.15,2013-03-29 00:58:00,
2013-03-28 21:04:00,43.7,25.3,30.33,WSW,250,1.0,1.0,48,0.00,,,0.00,Wunderground v.1.15,2013-03-29 01:04:00,
2013-03-28 21:10:00,43.5,25.1,30.33,WSW,252,2.0,2.0,48,0.00,,,0.00,Wunderground v.1.15,2013-03-29 01:10:00,
2013-03-28 21:16:00,43.5,25.1,30.33,SW,231,2.0,3.0,48,0.00,,,0.00,Wunderground v.1.15,2013-03-29 01:16:00,
2013-03-28 21:22:00,43.9,24.9,30.34,WSW,250,2.0,2.0,47,0.00,,,0.00,Wunderground v.1.15,2013-03-29 01:22:00,
2013-03-28 21:28:00,44.0,25.0,30.34,WSW,257,2.0,2.0,47,0.00,,,0.00,Wunderground v.1.15,2013-03-29 01:28:00,
2013-03-28 21:34:00,43.0,25.1,30.34,SW,235,1.0,2.0,49,0.00,,,0.00,Wunderground v.1.15,2013-03-29 01:34:00,
2013-03-28 21:40:00,42.5,25.6,30.34,West,278,1.0,1.0,51,0.00,,,0.00,Wunderground v.1.15,2013-03-29 01:40:00,
2013-03-28 21:46:00,42.2,25.8,30.34,West,278,1.0,1.0,52,0.00,,,0.00,Wunderground v.1.15,2013-03-29 01:46:00,
2013-03-28 21:52:00,42.2,25.8,30.34,West,277,0.0,1.0,52,0.00,,,0.00,Wunderground v.1.15,2013-03-29 01:52:00,
2013-03-28 21:58:00,41.9,26.0,30.34,West,277,0.0,1.0,53,0.00,,,0.00,Wunderground v.1.15,2013-03-29 01:58:00,
2013-03-28 22:04:00,41.0,26.5,30.34,West,269,1.0,1.0,56,0.00,,,0.00,Wunderground v.1.15,2013-03-29 02:04:00,
2013-03-28 22:10:00,40.4,26.4,30.34,WNW,294,1.0,2.0,57,0.00,,,0.00,Wunderground v.1.15,2013-03-29 02:10:00,
2013-03-28 22:16:00,40.0,26.0,30.35,West,277,1.0,2.0,57,0.00,,,0.00,Wunderground v.1.15,2013-03-29 02:16:00,
2013-03-28 22:22:00,39.9,25.9,30.35,WNW,291,1.0,1.0,57,0.00,,,0.00,Wunderground v.1.15,2013-03-29 02:22:00,
2013-03-28 22:28:00,39.9,25.5,30.35,WNW,291,0.0,1.0,56,0.00,,,0.00,Wunderground v.1.15,2013-03-29 02:28:00,
2013-03-28 22:34:00,39.8,26.2,30.35,WNW,291,0.0,1.0,58,0.00,,,0.00,Wunderground v.1.15,2013-03-29 02:34:00,
2013-03-28 22:40:00,39.3,25.7,30.35,WNW,291,0.0,1.0,58,0.00,,,0.00,Wunderground v.1.15,2013-03-29 02:40:00,
2013-03-28 22:46:00,38.9,25.8,30.35,NE,49,0.0,1.0,59,0.00,,,0.00,Wunderground v.1.15,2013-03-29 02:46:00,
2013-03-28 22:52:00,39.4,26.7,30.35,ENE,72,0.0,1.0,60,0.00,,,0.00,Wunderground v.1.15,2013-03-29 02:52:00,
2013-03-28 22:58:00,39.8,27.8,30.36,ENE,72,0.0,1.0,62,0.00,,,0.00,Wunderground v.1.15,2013-03-29 02:58:00,
2013-03-28 23:04:00,39.7,28.5,30.36,ENE,72,0.0,1.0,64,0.00,,,0.00,Wunderground v.1.15,2013-03-29 03:04:00,
2013-03-28 23:10:00,39.7,28.9,30.36,South,174,1.0,1.0,65,0.00,,,0.00,Wunderground v.1.15,2013-03-29 03:10:00,
2013-03-28 23:18:00,39.5,27.9,30.36,SSW,211,2.0,3.0,63,0.00,,,0.00,Wunderground v.1.15,2013-03-29 03:18:00,
2013-03-28 23:24:00,39.3,27.0,30.36,SSW,211,1.0,1.0,61,0.00,,,0.00,Wunderground v.1.15,2013-03-29 03:24:00,
2013-03-28 23:30:00,39.5,26.3,30.36,SSW,211,1.0,1.0,59,0.00,,,0.00,Wunderground v.1.15,2013-03-29 03:30:00,
2013-03-28 23:36:00,39.3,26.2,30.36,SSW,211,0.0,1.0,59,0.00,,,0.00,Wunderground v.1.15,2013-03-29 03:36:00,
2013-03-28 23:42:00,38.8,26.5,30.36,West,259,0.0,1.0,61,0.00,,,0.00,Wunderground v.1.15,2013-03-29 03:42:00,
2013-03-28 23:48:00,38.3,27.2,30.36,West,259,0.0,1.0,64,0.00,,,0.00,Wunderground v.1.15,2013-03-29 03:48:00,
2013-03-28 23:58:00,38.7,26.0,30.36,SSW,193,0.0,1.0,60,0.00,,,0.00,Wunderground v.1.15,2013-03-29 03:58:00,